sensor_id;sensor_type;location;lat;lon;timestamp;temperature;humidity
36710;DHT22;22694;51.040;3.684;2022-09-03T00:02:32;21.90;75.40
36710;DHT22;22694;51.040;3.684;2022-09-03T00:05:22;21.90;75.40
36710;DHT22;22694;51.040;3.684;2022-09-03T00:08:06;21.80;75.40
36710;DHT22;22694;51.040;3.684;2022-09-03T00:10:55;21.80;75.40
36710;DHT22;22694;51.040;3.684;2022-09-03T00:13:46;21.80;75.50
36710;DHT22;22694;51.040;3.684;2022-09-03T00:16:16;21.80;75.50
36710;DHT22;22694;51.040;3.684;2022-09-03T00:18:57;21.80;75.60
36710;DHT22;22694;51.040;3.684;2022-09-03T00:21:39;21.80;75.60
36710;DHT22;22694;51.040;3.684;2022-09-03T00:24:10;21.80;75.70
36710;DHT22;22694;51.040;3.684;2022-09-03T00:26:38;21.80;75.70
36710;DHT22;22694;51.040;3.684;2022-09-03T00:29:16;21.80;75.70
36710;DHT22;22694;51.040;3.684;2022-09-03T00:31:50;21.80;75.80
36710;DHT22;22694;51.040;3.684;2022-09-03T00:34:39;21.80;75.90
36710;DHT22;22694;51.040;3.684;2022-09-03T00:37:09;21.80;75.90
36710;DHT22;22694;51.040;3.684;2022-09-03T00:39:36;21.80;75.90
36710;DHT22;22694;51.040;3.684;2022-09-03T00:45:12;21.80;76.00
36710;DHT22;22694;51.040;3.684;2022-09-03T00:59:34;21.70;76.20
36710;DHT22;22694;51.040;3.684;2022-09-03T01:02:17;21.70;76.30
36710;DHT22;22694;51.040;3.684;2022-09-03T01:08:13;21.70;76.40
36710;DHT22;22694;51.040;3.684;2022-09-03T01:10:55;21.70;76.50
36710;DHT22;22694;51.040;3.684;2022-09-03T01:16:58;21.70;76.60
36710;DHT22;22694;51.040;3.684;2022-09-03T01:30:41;21.60;76.80
36710;DHT22;22694;51.040;3.684;2022-09-03T01:33:27;21.60;76.80
36710;DHT22;22694;51.040;3.684;2022-09-03T01:39:13;21.60;76.80
36710;DHT22;22694;51.040;3.684;2022-09-03T01:42:01;21.60;76.90
36710;DHT22;22694;51.040;3.684;2022-09-03T01:49:56;21.50;77.50
36710;DHT22;22694;51.040;3.684;2022-09-03T01:52:45;21.50;76.90
36710;DHT22;22694;51.040;3.684;2022-09-03T01:58:23;21.50;77.00
36710;DHT22;22694;51.040;3.684;2022-09-03T02:01:02;21.50;77.10
36710;DHT22;22694;51.040;3.684;2022-09-03T02:03:37;21.50;77.10
36710;DHT22;22694;51.040;3.684;2022-09-03T02:06:03;21.50;77.20
36710;DHT22;22694;51.040;3.684;2022-09-03T02:08:30;21.50;77.20
36710;DHT22;22694;51.040;3.684;2022-09-03T02:10:57;21.50;77.20
36710;DHT22;22694;51.040;3.684;2022-09-03T02:13:43;21.50;77.20
36710;DHT22;22694;51.040;3.684;2022-09-03T02:16:16;21.40;77.10
36710;DHT22;22694;51.040;3.684;2022-09-03T02:18:54;21.40;77.10
36710;DHT22;22694;51.040;3.684;2022-09-03T02:21:23;21.40;77.10
36710;DHT22;22694;51.040;3.684;2022-09-03T02:23:50;21.40;77.80
36710;DHT22;22694;51.040;3.684;2022-09-03T02:26:20;21.40;77.20
36710;DHT22;22694;51.040;3.684;2022-09-03T02:28:46;21.40;77.20
36710;DHT22;22694;51.040;3.684;2022-09-03T02:31:12;21.40;77.20
36710;DHT22;22694;51.040;3.684;2022-09-03T02:33:40;21.40;77.20
36710;DHT22;22694;51.040;3.684;2022-09-03T02:36:09;21.40;77.20
36710;DHT22;22694;51.040;3.684;2022-09-03T02:38:35;21.40;77.20
36710;DHT22;22694;51.040;3.684;2022-09-03T02:41:01;21.40;77.30
36710;DHT22;22694;51.040;3.684;2022-09-03T02:46:02;21.40;77.30
36710;DHT22;22694;51.040;3.684;2022-09-03T02:48:28;21.40;77.40
36710;DHT22;22694;51.040;3.684;2022-09-03T02:50:54;21.40;77.40
36710;DHT22;22694;51.040;3.684;2022-09-03T02:53:20;21.40;77.40
36710;DHT22;22694;51.040;3.684;2022-09-03T02:55:46;21.30;77.40
36710;DHT22;22694;51.040;3.684;2022-09-03T02:58:12;21.40;77.40
36710;DHT22;22694;51.040;3.684;2022-09-03T03:00:38;21.30;77.40
36710;DHT22;22694;51.040;3.684;2022-09-03T03:03:04;21.40;77.50
36710;DHT22;22694;51.040;3.684;2022-09-03T03:05:45;21.30;77.50
36710;DHT22;22694;51.040;3.684;2022-09-03T03:08:12;21.30;77.50
36710;DHT22;22694;51.040;3.684;2022-09-03T03:10:40;21.30;77.60
36710;DHT22;22694;51.040;3.684;2022-09-03T03:13:06;21.30;77.60
36710;DHT22;22694;51.040;3.684;2022-09-03T03:15:31;21.30;77.70
36710;DHT22;22694;51.040;3.684;2022-09-03T03:17:57;21.30;77.70
36710;DHT22;22694;51.040;3.684;2022-09-03T03:20:23;21.30;77.80
36710;DHT22;22694;51.040;3.684;2022-09-03T03:22:49;21.40;78.50
36710;DHT22;22694;51.040;3.684;2022-09-03T03:25:14;21.40;79.40
36710;DHT22;22694;51.040;3.684;2022-09-03T03:27:40;21.40;78.90
36710;DHT22;22694;51.040;3.684;2022-09-03T03:30:08;21.40;78.20
36710;DHT22;22694;51.040;3.684;2022-09-03T03:32:37;21.40;78.00
36710;DHT22;22694;51.040;3.684;2022-09-03T03:35:04;21.40;78.00
36710;DHT22;22694;51.040;3.684;2022-09-03T03:37:30;21.40;78.10
36710;DHT22;22694;51.040;3.684;2022-09-03T03:39:56;21.40;78.10
36710;DHT22;22694;51.040;3.684;2022-09-03T03:42:22;21.40;78.20
36710;DHT22;22694;51.040;3.684;2022-09-03T03:44:48;21.40;78.20
36710;DHT22;22694;51.040;3.684;2022-09-03T03:47:13;21.40;78.20
36710;DHT22;22694;51.040;3.684;2022-09-03T03:49:44;21.30;78.20
36710;DHT22;22694;51.040;3.684;2022-09-03T03:52:10;21.40;78.30
36710;DHT22;22694;51.040;3.684;2022-09-03T03:54:35;21.40;78.30
36710;DHT22;22694;51.040;3.684;2022-09-03T03:57:01;21.40;78.40
36710;DHT22;22694;51.040;3.684;2022-09-03T03:59:27;21.40;79.00
36710;DHT22;22694;51.040;3.684;2022-09-03T04:01:56;21.40;78.40
36710;DHT22;22694;51.040;3.684;2022-09-03T04:04:21;21.40;78.40
36710;DHT22;22694;51.040;3.684;2022-09-03T04:06:47;21.40;78.40
36710;DHT22;22694;51.040;3.684;2022-09-03T04:09:12;21.40;78.40
36710;DHT22;22694;51.040;3.684;2022-09-03T04:11:38;21.40;78.40
36710;DHT22;22694;51.040;3.684;2022-09-03T04:14:04;21.40;78.40
36710;DHT22;22694;51.040;3.684;2022-09-03T04:16:30;21.40;78.40
36710;DHT22;22694;51.040;3.684;2022-09-03T04:18:57;21.40;78.50
36710;DHT22;22694;51.040;3.684;2022-09-03T04:21:25;21.40;78.70
36710;DHT22;22694;51.040;3.684;2022-09-03T04:23:51;21.40;78.80
36710;DHT22;22694;51.040;3.684;2022-09-03T04:26:22;21.50;80.20
36710;DHT22;22694;51.040;3.684;2022-09-03T04:28:48;21.70;81.70
36710;DHT22;22694;51.040;3.684;2022-09-03T04:31:16;21.80;82.10
36710;DHT22;22694;51.040;3.684;2022-09-03T04:33:42;21.90;82.00
36710;DHT22;22694;51.040;3.684;2022-09-03T04:36:16;22.00;81.70
36710;DHT22;22694;51.040;3.684;2022-09-03T04:38:43;22.10;81.40
36710;DHT22;22694;51.040;3.684;2022-09-03T04:41:12;22.10;81.10
36710;DHT22;22694;51.040;3.684;2022-09-03T04:43:38;22.20;80.90
36710;DHT22;22694;51.040;3.684;2022-09-03T04:46:06;22.20;80.70
36710;DHT22;22694;51.040;3.684;2022-09-03T04:48:35;22.20;80.60
36710;DHT22;22694;51.040;3.684;2022-09-03T04:51:09;22.20;80.40
36710;DHT22;22694;51.040;3.684;2022-09-03T04:53:38;22.20;80.30
36710;DHT22;22694;51.040;3.684;2022-09-03T04:56:18;22.20;80.30
36710;DHT22;22694;51.040;3.684;2022-09-03T04:58:45;22.20;80.10
36710;DHT22;22694;51.040;3.684;2022-09-03T05:01:15;22.20;80.20
36710;DHT22;22694;51.040;3.684;2022-09-03T05:03:41;22.20;80.30
36710;DHT22;22694;51.040;3.684;2022-09-03T05:06:07;22.10;80.30
36710;DHT22;22694;51.040;3.684;2022-09-03T05:08:34;22.10;80.30
36710;DHT22;22694;51.040;3.684;2022-09-03T05:11:02;22.10;80.40
36710;DHT22;22694;51.040;3.684;2022-09-03T05:13:28;22.10;80.40
36710;DHT22;22694;51.040;3.684;2022-09-03T05:16:02;22.10;80.50
36710;DHT22;22694;51.040;3.684;2022-09-03T05:18:29;22.10;80.80
36710;DHT22;22694;51.040;3.684;2022-09-03T05:21:11;22.00;80.80
36710;DHT22;22694;51.040;3.684;2022-09-03T05:23:42;22.00;80.80
36710;DHT22;22694;51.040;3.684;2022-09-03T05:26:11;22.10;81.50
36710;DHT22;22694;51.040;3.684;2022-09-03T05:28:38;22.10;80.90
36710;DHT22;22694;51.040;3.684;2022-09-03T05:33:35;22.00;80.90
36710;DHT22;22694;51.040;3.684;2022-09-03T05:36:03;22.00;80.90
36710;DHT22;22694;51.040;3.684;2022-09-03T05:38:29;22.00;80.90
36710;DHT22;22694;51.040;3.684;2022-09-03T05:40:59;22.00;80.90
36710;DHT22;22694;51.040;3.684;2022-09-03T05:43:26;21.90;80.90
36710;DHT22;22694;51.040;3.684;2022-09-03T05:45:58;22.00;81.00
36710;DHT22;22694;51.040;3.684;2022-09-03T05:48:28;21.90;81.10
36710;DHT22;22694;51.040;3.684;2022-09-03T05:51:03;22.00;81.20
36710;DHT22;22694;51.040;3.684;2022-09-03T05:53:31;21.90;81.20
36710;DHT22;22694;51.040;3.684;2022-09-03T05:56:01;21.90;81.20
36710;DHT22;22694;51.040;3.684;2022-09-03T05:58:31;21.90;81.20
36710;DHT22;22694;51.040;3.684;2022-09-03T06:00:57;21.90;81.20
36710;DHT22;22694;51.040;3.684;2022-09-03T06:03:23;21.90;81.30
36710;DHT22;22694;51.040;3.684;2022-09-03T06:05:53;21.90;81.30
36710;DHT22;22694;51.040;3.684;2022-09-03T06:08:19;21.90;81.20
36710;DHT22;22694;51.040;3.684;2022-09-03T06:10:45;21.90;81.30
36710;DHT22;22694;51.040;3.684;2022-09-03T06:13:11;21.80;81.20
36710;DHT22;22694;51.040;3.684;2022-09-03T06:15:37;21.80;81.40
36710;DHT22;22694;51.040;3.684;2022-09-03T06:18:03;21.80;81.50
36710;DHT22;22694;51.040;3.684;2022-09-03T06:20:29;21.80;81.50
36710;DHT22;22694;51.040;3.684;2022-09-03T06:22:57;21.80;81.50
36710;DHT22;22694;51.040;3.684;2022-09-03T06:25:22;21.80;81.50
36710;DHT22;22694;51.040;3.684;2022-09-03T06:27:49;21.80;81.60
36710;DHT22;22694;51.040;3.684;2022-09-03T06:30:15;21.80;81.60
36710;DHT22;22694;51.040;3.684;2022-09-03T06:32:45;21.80;81.70
36710;DHT22;22694;51.040;3.684;2022-09-03T06:35:11;21.80;81.70
36710;DHT22;22694;51.040;3.684;2022-09-03T06:37:41;21.80;81.80
36710;DHT22;22694;51.040;3.684;2022-09-03T06:40:08;21.80;81.90
36710;DHT22;22694;51.040;3.684;2022-09-03T06:42:39;21.80;81.90
36710;DHT22;22694;51.040;3.684;2022-09-03T06:45:09;21.80;82.00
36710;DHT22;22694;51.040;3.684;2022-09-03T06:47:35;21.80;82.50
36710;DHT22;22694;51.040;3.684;2022-09-03T06:50:01;21.80;82.10
36710;DHT22;22694;51.040;3.684;2022-09-03T06:52:27;21.80;82.20
36710;DHT22;22694;51.040;3.684;2022-09-03T06:54:53;21.80;82.20
36710;DHT22;22694;51.040;3.684;2022-09-03T06:57:19;21.80;82.30
36710;DHT22;22694;51.040;3.684;2022-09-03T06:59:44;21.80;82.30
36710;DHT22;22694;51.040;3.684;2022-09-03T07:02:10;21.80;82.40
36710;DHT22;22694;51.040;3.684;2022-09-03T07:04:36;21.80;82.40
36710;DHT22;22694;51.040;3.684;2022-09-03T07:07:02;21.80;82.40
36710;DHT22;22694;51.040;3.684;2022-09-03T07:09:27;21.80;82.50
36710;DHT22;22694;51.040;3.684;2022-09-03T07:11:54;21.80;82.50
36710;DHT22;22694;51.040;3.684;2022-09-03T07:14:20;21.80;82.50
36710;DHT22;22694;51.040;3.684;2022-09-03T07:16:47;21.80;83.00
36710;DHT22;22694;51.040;3.684;2022-09-03T07:19:14;21.80;82.50
36710;DHT22;22694;51.040;3.684;2022-09-03T07:21:40;21.80;83.00
36710;DHT22;22694;51.040;3.684;2022-09-03T07:24:07;21.80;82.50
36710;DHT22;22694;51.040;3.684;2022-09-03T07:26:40;21.80;82.50
36710;DHT22;22694;51.040;3.684;2022-09-03T07:29:09;21.80;82.50
36710;DHT22;22694;51.040;3.684;2022-09-03T07:31:40;21.80;82.50
36710;DHT22;22694;51.040;3.684;2022-09-03T07:34:08;21.90;82.70
36710;DHT22;22694;51.040;3.684;2022-09-03T07:36:45;21.80;82.90
36710;DHT22;22694;51.040;3.684;2022-09-03T07:39:16;21.90;83.20
36710;DHT22;22694;51.040;3.684;2022-09-03T07:41:42;21.90;83.30
36710;DHT22;22694;51.040;3.684;2022-09-03T07:44:16;21.90;83.30
36710;DHT22;22694;51.040;3.684;2022-09-03T07:46:44;21.80;83.10
36710;DHT22;22694;51.040;3.684;2022-09-03T07:49:12;21.70;83.40
36710;DHT22;22694;51.040;3.684;2022-09-03T07:51:38;21.70;83.30
36710;DHT22;22694;51.040;3.684;2022-09-03T07:54:06;21.60;83.20
36710;DHT22;22694;51.040;3.684;2022-09-03T07:56:33;21.60;83.40
36710;DHT22;22694;51.040;3.684;2022-09-03T07:59:00;21.60;83.70
36710;DHT22;22694;51.040;3.684;2022-09-03T08:01:28;21.50;83.70
36710;DHT22;22694;51.040;3.684;2022-09-03T08:03:55;21.50;83.80
36710;DHT22;22694;51.040;3.684;2022-09-03T08:06:23;21.50;83.90
36710;DHT22;22694;51.040;3.684;2022-09-03T08:08:54;21.40;83.90
36710;DHT22;22694;51.040;3.684;2022-09-03T08:11:22;21.40;83.80
36710;DHT22;22694;51.040;3.684;2022-09-03T08:14:00;21.40;83.80
36710;DHT22;22694;51.040;3.684;2022-09-03T08:16:31;21.40;83.70
36710;DHT22;22694;51.040;3.684;2022-09-03T08:18:58;21.40;83.70
36710;DHT22;22694;51.040;3.684;2022-09-03T08:21:24;21.40;83.60
36710;DHT22;22694;51.040;3.684;2022-09-03T08:23:52;21.40;83.50
36710;DHT22;22694;51.040;3.684;2022-09-03T08:26:20;21.40;83.50
36710;DHT22;22694;51.040;3.684;2022-09-03T08:28:47;21.40;83.40
36710;DHT22;22694;51.040;3.684;2022-09-03T08:31:16;21.40;83.20
36710;DHT22;22694;51.040;3.684;2022-09-03T08:33:44;21.40;83.10
36710;DHT22;22694;51.040;3.684;2022-09-03T08:36:18;21.40;83.10
36710;DHT22;22694;51.040;3.684;2022-09-03T08:38:45;21.50;82.90
36710;DHT22;22694;51.040;3.684;2022-09-03T08:49:29;21.50;81.90
36710;DHT22;22694;51.040;3.684;2022-09-03T08:51:55;21.50;81.90
36710;DHT22;22694;51.040;3.684;2022-09-03T08:54:29;21.50;81.70
36710;DHT22;22694;51.040;3.684;2022-09-03T08:56:59;21.50;82.10
36710;DHT22;22694;51.040;3.684;2022-09-03T08:59:25;21.60;82.30
36710;DHT22;22694;51.040;3.684;2022-09-03T09:01:54;21.60;82.30
36710;DHT22;22694;51.040;3.684;2022-09-03T09:07:35;21.60;82.10
36710;DHT22;22694;51.040;3.684;2022-09-03T09:10:18;21.60;82.30
36710;DHT22;22694;51.040;3.684;2022-09-03T09:13:07;21.70;82.20
36710;DHT22;22694;51.040;3.684;2022-09-03T09:16:03;21.70;82.20
36710;DHT22;22694;51.040;3.684;2022-09-03T09:21:27;21.80;82.20
36710;DHT22;22694;51.040;3.684;2022-09-03T09:23:58;21.80;82.10
36710;DHT22;22694;51.040;3.684;2022-09-03T09:26:26;21.80;82.00
36710;DHT22;22694;51.040;3.684;2022-09-03T09:29:05;21.80;82.10
36710;DHT22;22694;51.040;3.684;2022-09-03T09:31:33;21.90;82.30
36710;DHT22;22694;51.040;3.684;2022-09-03T09:34:07;21.90;82.30
36710;DHT22;22694;51.040;3.684;2022-09-03T09:36:54;21.90;82.30
36710;DHT22;22694;51.040;3.684;2022-09-03T09:39:20;21.90;82.20
36710;DHT22;22694;51.040;3.684;2022-09-03T09:42:00;22.00;82.20
36710;DHT22;22694;51.040;3.684;2022-09-03T09:44:34;22.20;83.30
36710;DHT22;22694;51.040;3.684;2022-09-03T09:47:06;22.30;83.20
36710;DHT22;22694;51.040;3.684;2022-09-03T09:49:36;22.40;83.30
36710;DHT22;22694;51.040;3.684;2022-09-03T09:52:05;22.40;82.90
36710;DHT22;22694;51.040;3.684;2022-09-03T09:54:32;22.50;82.60
36710;DHT22;22694;51.040;3.684;2022-09-03T09:57:01;22.50;81.70
36710;DHT22;22694;51.040;3.684;2022-09-03T09:59:28;22.60;81.10
36710;DHT22;22694;51.040;3.684;2022-09-03T10:02:08;22.60;81.10
36710;DHT22;22694;51.040;3.684;2022-09-03T10:04:34;22.60;81.20
36710;DHT22;22694;51.040;3.684;2022-09-03T10:07:28;22.70;81.60
36710;DHT22;22694;51.040;3.684;2022-09-03T10:09:59;22.80;81.30
36710;DHT22;22694;51.040;3.684;2022-09-03T10:12:32;22.80;81.60
36710;DHT22;22694;51.040;3.684;2022-09-03T10:23:24;23.10;82.40
36710;DHT22;22694;51.040;3.684;2022-09-03T10:28:29;23.30;78.90
36710;DHT22;22694;51.040;3.684;2022-09-03T10:34:15;23.40;77.50
36710;DHT22;22694;51.040;3.684;2022-09-03T10:37:01;23.50;78.00
36710;DHT22;22694;51.040;3.684;2022-09-03T10:42:39;23.70;76.60
36710;DHT22;22694;51.040;3.684;2022-09-03T10:48:38;23.80;76.80
36710;DHT22;22694;51.040;3.684;2022-09-03T10:51:18;23.90;75.10
36710;DHT22;22694;51.040;3.684;2022-09-03T10:53:54;24.00;75.10
36710;DHT22;22694;51.040;3.684;2022-09-03T10:56:39;24.00;75.70
36710;DHT22;22694;51.040;3.684;2022-09-03T11:04:26;24.10;75.90
36710;DHT22;22694;51.040;3.684;2022-09-03T11:07:04;24.20;75.50
36710;DHT22;22694;51.040;3.684;2022-09-03T11:09:37;24.20;75.80
36710;DHT22;22694;51.040;3.684;2022-09-03T11:12:10;24.20;76.70
36710;DHT22;22694;51.040;3.684;2022-09-03T11:14:41;24.30;76.60
36710;DHT22;22694;51.040;3.684;2022-09-03T11:17:14;24.30;76.80
36710;DHT22;22694;51.040;3.684;2022-09-03T11:19:59;24.40;77.00
36710;DHT22;22694;51.040;3.684;2022-09-03T11:22:28;24.40;76.90
36710;DHT22;22694;51.040;3.684;2022-09-03T11:24:59;24.40;77.00
36710;DHT22;22694;51.040;3.684;2022-09-03T11:27:31;24.50;77.00
36710;DHT22;22694;51.040;3.684;2022-09-03T11:32:55;24.60;76.90
36710;DHT22;22694;51.040;3.684;2022-09-03T11:38:01;24.70;76.80
36710;DHT22;22694;51.040;3.684;2022-09-03T11:40:38;24.70;76.70
36710;DHT22;22694;51.040;3.684;2022-09-03T11:43:23;24.80;76.20
36710;DHT22;22694;51.040;3.684;2022-09-03T11:48:45;24.90;76.40
36710;DHT22;22694;51.040;3.684;2022-09-03T11:51:32;24.90;77.00
36710;DHT22;22694;51.040;3.684;2022-09-03T11:56:39;25.00;76.30
36710;DHT22;22694;51.040;3.684;2022-09-03T11:59:18;25.00;76.20
36710;DHT22;22694;51.040;3.684;2022-09-03T12:02:00;25.00;76.20
36710;DHT22;22694;51.040;3.684;2022-09-03T12:04:33;25.10;76.20
36710;DHT22;22694;51.040;3.684;2022-09-03T12:07:26;25.10;76.10
36710;DHT22;22694;51.040;3.684;2022-09-03T12:15:59;25.20;75.90
36710;DHT22;22694;51.040;3.684;2022-09-03T12:18:31;25.30;75.90
36710;DHT22;22694;51.040;3.684;2022-09-03T12:23:34;25.30;75.90
36710;DHT22;22694;51.040;3.684;2022-09-03T12:26:14;25.40;76.00
36710;DHT22;22694;51.040;3.684;2022-09-03T12:28:49;25.40;75.90
36710;DHT22;22694;51.040;3.684;2022-09-03T12:32:04;25.40;74.80
36710;DHT22;22694;51.040;3.684;2022-09-03T12:34:15;25.50;71.70
36710;DHT22;22694;51.040;3.684;2022-09-03T12:36:47;25.70;71.10
36710;DHT22;22694;51.040;3.684;2022-09-03T12:39:23;25.80;70.60
36710;DHT22;22694;51.040;3.684;2022-09-03T12:42:06;25.90;68.40
36710;DHT22;22694;51.040;3.684;2022-09-03T12:47:04;26.10;67.70
36710;DHT22;22694;51.040;3.684;2022-09-03T12:49:35;26.20;68.60
36710;DHT22;22694;51.040;3.684;2022-09-03T12:52:27;26.20;70.10
36710;DHT22;22694;51.040;3.684;2022-09-03T12:57:42;26.20;70.90
36710;DHT22;22694;51.040;3.684;2022-09-03T13:00:13;26.30;69.80
36710;DHT22;22694;51.040;3.684;2022-09-03T13:02:50;26.40;69.40
36710;DHT22;22694;51.040;3.684;2022-09-03T13:08:01;26.40;70.90
36710;DHT22;22694;51.040;3.684;2022-09-03T13:10:30;26.40;71.50
36710;DHT22;22694;51.040;3.684;2022-09-03T13:12:59;26.50;72.00
36710;DHT22;22694;51.040;3.684;2022-09-03T13:15:26;26.50;72.00
36710;DHT22;22694;51.040;3.684;2022-09-03T13:18:07;26.50;71.20
36710;DHT22;22694;51.040;3.684;2022-09-03T13:23:18;26.60;70.40
36710;DHT22;22694;51.040;3.684;2022-09-03T13:31:43;26.70;71.60
36710;DHT22;22694;51.040;3.684;2022-09-03T13:34:26;26.70;71.60
36710;DHT22;22694;51.040;3.684;2022-09-03T13:37:32;26.80;71.80
36710;DHT22;22694;51.040;3.684;2022-09-03T13:40:08;26.80;71.60
36710;DHT22;22694;51.040;3.684;2022-09-03T13:42:42;26.80;71.50
36710;DHT22;22694;51.040;3.684;2022-09-03T13:45:30;26.80;71.40
36710;DHT22;22694;51.040;3.684;2022-09-03T14:02:17;27.00;71.90
36710;DHT22;22694;51.040;3.684;2022-09-03T14:10:32;27.00;70.90
36710;DHT22;22694;51.040;3.684;2022-09-03T14:13:36;27.00;71.20
36710;DHT22;22694;51.040;3.684;2022-09-03T14:16:19;27.00;71.10
36710;DHT22;22694;51.040;3.684;2022-09-03T14:18:53;27.00;70.70
36710;DHT22;22694;51.040;3.684;2022-09-03T14:21:35;27.00;71.10
36710;DHT22;22694;51.040;3.684;2022-09-03T14:24:19;27.00;71.30
36710;DHT22;22694;51.040;3.684;2022-09-03T14:26:57;27.00;71.30
36710;DHT22;22694;51.040;3.684;2022-09-03T14:29:27;27.00;71.30
36710;DHT22;22694;51.040;3.684;2022-09-03T14:32:30;27.00;71.30
36710;DHT22;22694;51.040;3.684;2022-09-03T14:37:48;27.10;71.20
36710;DHT22;22694;51.040;3.684;2022-09-03T14:45:58;27.10;71.00
36710;DHT22;22694;51.040;3.684;2022-09-03T14:48:36;27.10;70.90
36710;DHT22;22694;51.040;3.684;2022-09-03T15:02:22;27.10;70.60
36710;DHT22;22694;51.040;3.684;2022-09-03T15:10:26;27.10;70.50
36710;DHT22;22694;51.040;3.684;2022-09-03T15:12:58;27.10;70.60
36710;DHT22;22694;51.040;3.684;2022-09-03T15:20:52;27.00;70.90
36710;DHT22;22694;51.040;3.684;2022-09-03T15:35:09;27.00;71.10
36710;DHT22;22694;51.040;3.684;2022-09-03T15:37:53;27.00;71.10
36710;DHT22;22694;51.040;3.684;2022-09-03T15:40:27;26.90;71.00
36710;DHT22;22694;51.040;3.684;2022-09-03T15:43:30;26.90;71.00
36710;DHT22;22694;51.040;3.684;2022-09-03T15:45:59;26.90;71.00
36710;DHT22;22694;51.040;3.684;2022-09-03T15:56:36;26.80;71.20
36710;DHT22;22694;51.040;3.684;2022-09-03T15:59:27;26.80;71.20
36710;DHT22;22694;51.040;3.684;2022-09-03T16:07:30;26.70;71.50
36710;DHT22;22694;51.040;3.684;2022-09-03T16:12:35;26.60;71.60
36710;DHT22;22694;51.040;3.684;2022-09-03T16:15:13;26.60;71.80
36710;DHT22;22694;51.040;3.684;2022-09-03T16:20:45;26.60;72.00
36710;DHT22;22694;51.040;3.684;2022-09-03T16:23:24;26.60;72.10
36710;DHT22;22694;51.040;3.684;2022-09-03T16:25:59;26.50;72.10
36710;DHT22;22694;51.040;3.684;2022-09-03T16:37:03;26.40;70.90
36710;DHT22;22694;51.040;3.684;2022-09-03T16:40:02;26.40;70.80
36710;DHT22;22694;51.040;3.684;2022-09-03T16:42:58;26.40;70.80
36710;DHT22;22694;51.040;3.684;2022-09-03T16:46:13;26.30;70.40
36710;DHT22;22694;51.040;3.684;2022-09-03T16:51:12;26.30;69.90
36710;DHT22;22694;51.040;3.684;2022-09-03T17:02:01;26.10;69.30
36710;DHT22;22694;51.040;3.684;2022-09-03T17:12:23;26.10;69.80
36710;DHT22;22694;51.040;3.684;2022-09-03T17:20:15;26.00;70.10
36710;DHT22;22694;51.040;3.684;2022-09-03T17:33:51;25.80;71.00
36710;DHT22;22694;51.040;3.684;2022-09-03T17:36:26;25.80;71.00
36710;DHT22;22694;51.040;3.684;2022-09-03T17:41:46;25.70;71.00
36710;DHT22;22694;51.040;3.684;2022-09-03T17:44:33;25.60;70.90
36710;DHT22;22694;51.040;3.684;2022-09-03T17:49:58;25.50;70.90
36710;DHT22;22694;51.040;3.684;2022-09-03T17:52:46;25.50;70.70
36710;DHT22;22694;51.040;3.684;2022-09-03T17:55:28;25.50;70.70
36710;DHT22;22694;51.040;3.684;2022-09-03T17:58:16;25.40;70.60
36710;DHT22;22694;51.040;3.684;2022-09-03T18:09:00;25.40;76.90
36710;DHT22;22694;51.040;3.684;2022-09-03T18:14:21;25.40;78.40
36710;DHT22;22694;51.040;3.684;2022-09-03T18:16:53;25.20;72.60
36710;DHT22;22694;51.040;3.684;2022-09-03T18:19:51;25.20;71.50
36710;DHT22;22694;51.040;3.684;2022-09-03T18:25:32;25.00;71.70
36710;DHT22;22694;51.040;3.684;2022-09-03T18:28:35;24.90;72.00
36710;DHT22;22694;51.040;3.684;2022-09-03T18:31:20;24.80;72.30
36710;DHT22;22694;51.040;3.684;2022-09-03T18:34:06;24.80;72.60
36710;DHT22;22694;51.040;3.684;2022-09-03T18:36:50;24.80;72.90
36710;DHT22;22694;51.040;3.684;2022-09-03T18:39:34;24.70;73.00
36710;DHT22;22694;51.040;3.684;2022-09-03T18:48:35;24.60;73.30
36710;DHT22;22694;51.040;3.684;2022-09-03T18:51:35;24.50;73.40
36710;DHT22;22694;51.040;3.684;2022-09-03T19:07:03;24.60;77.60
36710;DHT22;22694;51.040;3.684;2022-09-03T19:10:09;24.60;77.50
36710;DHT22;22694;51.040;3.684;2022-09-03T19:13:19;24.60;77.30
36710;DHT22;22694;51.040;3.684;2022-09-03T19:16:20;24.60;77.10
36710;DHT22;22694;51.040;3.684;2022-09-03T19:22:09;24.60;76.70
36710;DHT22;22694;51.040;3.684;2022-09-03T19:25:02;24.60;76.70
36710;DHT22;22694;51.040;3.684;2022-09-03T19:34:25;24.50;76.40
36710;DHT22;22694;51.040;3.684;2022-09-03T19:46:53;24.40;76.80
36710;DHT22;22694;51.040;3.684;2022-09-03T19:50:03;24.30;74.40
36710;DHT22;22694;51.040;3.684;2022-09-03T19:53:02;24.20;74.00
36710;DHT22;22694;51.040;3.684;2022-09-03T19:55:57;24.10;74.40
36710;DHT22;22694;51.040;3.684;2022-09-03T19:59:10;24.00;74.50
36710;DHT22;22694;51.040;3.684;2022-09-03T20:01:55;23.90;74.70
36710;DHT22;22694;51.040;3.684;2022-09-03T20:04:47;23.80;74.90
36710;DHT22;22694;51.040;3.684;2022-09-03T20:07:34;23.80;74.90
36710;DHT22;22694;51.040;3.684;2022-09-03T20:10:20;23.70;74.90
36710;DHT22;22694;51.040;3.684;2022-09-03T20:13:02;23.70;75.10
36710;DHT22;22694;51.040;3.684;2022-09-03T20:15:57;23.70;75.10
36710;DHT22;22694;51.040;3.684;2022-09-03T20:21:47;23.60;75.20
36710;DHT22;22694;51.040;3.684;2022-09-03T20:32:28;23.50;75.60
36710;DHT22;22694;51.040;3.684;2022-09-03T20:35:07;23.40;75.60
36710;DHT22;22694;51.040;3.684;2022-09-03T20:37:38;23.40;75.70
36710;DHT22;22694;51.040;3.684;2022-09-03T20:48:29;23.30;75.90
36710;DHT22;22694;51.040;3.684;2022-09-03T20:56:17;23.30;76.20
36710;DHT22;22694;51.040;3.684;2022-09-03T20:59:00;23.30;76.30
36710;DHT22;22694;51.040;3.684;2022-09-03T21:09:53;23.20;76.40
36710;DHT22;22694;51.040;3.684;2022-09-03T21:12:54;23.10;76.40
36710;DHT22;22694;51.040;3.684;2022-09-03T21:15:46;23.10;76.50
36710;DHT22;22694;51.040;3.684;2022-09-03T21:24:12;23.00;76.70
36710;DHT22;22694;51.040;3.684;2022-09-03T21:26:40;23.00;76.80
36710;DHT22;22694;51.040;3.684;2022-09-03T21:29:27;23.00;76.90
36710;DHT22;22694;51.040;3.684;2022-09-03T21:32:01;22.90;76.90
36710;DHT22;22694;51.040;3.684;2022-09-03T21:34:57;22.90;77.00
36710;DHT22;22694;51.040;3.684;2022-09-03T21:37:23;22.90;77.00
36710;DHT22;22694;51.040;3.684;2022-09-03T21:39:52;22.90;77.10
36710;DHT22;22694;51.040;3.684;2022-09-03T21:42:33;22.80;77.10
36710;DHT22;22694;51.040;3.684;2022-09-03T21:45:05;22.90;77.20
36710;DHT22;22694;51.040;3.684;2022-09-03T21:47:39;22.80;77.20
36710;DHT22;22694;51.040;3.684;2022-09-03T22:01:04;22.70;77.60
36710;DHT22;22694;51.040;3.684;2022-09-03T22:03:31;22.70;77.60
36710;DHT22;22694;51.040;3.684;2022-09-03T22:06:05;22.70;77.70
36710;DHT22;22694;51.040;3.684;2022-09-03T22:08:41;22.70;77.60
36710;DHT22;22694;51.040;3.684;2022-09-03T22:11:26;22.70;77.70
36710;DHT22;22694;51.040;3.684;2022-09-03T22:13:59;22.70;77.70